APL Coral — WDF6832 — position and weather

sailwx.info

Track history (hours):
 
Tides and Currents Weather Stations Pressure Air Temp Water Temp Dewpoint Dewpoint Depression Visibility Wind Speed Wind Dir Waves Ship Positions

APL Coral

More information available from US FCC via Universal Licensing System and Coast Guard Vessel Documentation Center.

Last reported at 2014-Aug-16 04:08 UTC. Time now 2014-Aug-29 12:13 UTC.
Position N 30°40' E 032°20'.
Warning: this ship's position is 13 days out of date.

Length 275 m; draft 12.4 m.

Type: Ship (hazmat cat A). MMSI: 367478280.

Date/timePositionNaut miles runAvg speedWind from/ knotsBaromVisibWave heightAir tempDewpointWater temp
2014-Aug-16 04:08N 30°40' E 032°20'5 9.2
2014-Aug-16 03:33N 30°45' E 032°20'10 9.4
2014-Aug-16 02:32N 30°55' E 032°19'10 9.5
2014-Aug-16 01:29N 31°05' E 032°19'9 8.7
2014-Aug-16 00:27N 31°14' E 032°21'910.0
2014-Aug-15 23:33N 31°22' E 032°23'5 4.4
2014-Aug-15 22:28N 31°27' E 032°20'1314.1
2014-Aug-15 21:34N 31°35' E 032°09'1515.0
2014-Aug-15 20:33N 31°39' E 031°52'1111.2
2014-Aug-15 19:33N 31°29' E 031°46'2 1.7
2014-Aug-15 18:26N 31°28' E 031°46'0 0.0
2014-Aug-15 17:32N 31°28' E 031°46'0 0.0
2014-Aug-15 16:29N 31°28' E 031°46'0 0.0
2014-Aug-15 15:26N 31°28' E 031°46'0 0.0
2014-Aug-15 14:32N 31°28' E 031°46'0 0.0
2014-Aug-15 13:32N 31°28' E 031°46'0 0.0
2014-Aug-15 12:32N 31°28' E 031°46'0 0.0
2014-Aug-15 11:31N 31°28' E 031°46'0 0.0
2014-Aug-15 10:33N 31°28' E 031°46'0 0.0
2014-Aug-15 09:32N 31°28' E 031°46'0 0.1
2014-Aug-15 08:33N 31°28' E 031°46'0 0.1
2014-Aug-15 07:17N 31°28' E 031°46'0 0.0
2014-Aug-15 06:32N 31°28' E 031°46'0 0.0
2014-Aug-15 05:33N 31°28' E 031°46'0 0.0
2014-Aug-15 04:33N 31°28' E 031°46'0 0.0
2014-Aug-15 03:20N 31°28' E 031°46'0 0.0
2014-Aug-15 02:28N 31°28' E 031°46'0 0.0
2014-Aug-15 01:33N 31°28' E 031°46'0 0.0
2014-Aug-15 00:20N 31°28' E 031°46'0 0.0
2014-Aug-14 23:33N 31°28' E 031°46'0 0.0
2014-Aug-14 22:33N 31°28' E 031°46'1 0.9
2014-Aug-14 21:33N 31°28' E 031°45'9 8.7
2014-Aug-14 20:33N 31°37' E 031°47'2 2.1
2014-Aug-14 19:33N 31°39' E 031°46'1515.3
2014-Aug-14 18:33N 31°51' E 031°35'1817.7
2014-Aug-14 17:34N 32°01' E 031°18'1818.2
2014-Aug-14 16:34N 32°07' E 030°58'1818.4
2014-Aug-14 15:33N 32°13' E 030°37'1817.8
2014-Aug-14 14:33N 32°18' E 030°17'1817.6
2014-Aug-14 13:33N 32°23' E 029°57'3517.4
2014-Aug-14 11:33N 32°34' E 029°18'1717.1
2014-Aug-14 10:33N 32°39' E 028°59'2517.0
2014-Aug-14 09:06N 32°47' E 028°31'917.0
2014-Aug-14 08:33N 32°49' E 028°20'39917.9
2014-Aug-13 10:15N 34°50' E 020°43'1316.9
2014-Aug-13 09:31N 34°54' E 020°28'27617.8
2014-Aug-12 18:04N 36°15' E 015°05'1014.5
2014-Aug-12 17:23N 36°20' E 014°54'1617.6
2014-Aug-12 16:29N 36°26' E 014°36'1718.0
2014-Aug-12 15:33N 36°34' E 014°17'1817.5
2014-Aug-12 14:32N 36°43' E 013°58'1717.2
2014-Aug-12 13:32N 36°51' E 013°39'1717.4
2014-Aug-12 12:34N 37°00' E 013°21'9118.2
2014-Aug-12 07:32N 37°50' E 011°45'5618.7
2014-Aug-12 04:34N 38°20' E 010°45'1918.7
2014-Aug-12 03:33N 38°30' E 010°24'1918.4
2014-Aug-12 02:33N 38°39' E 010°04'1818.6
2014-Aug-12 01:33N 38°49' E 009°44'1818.0
2014-Aug-12 00:34N 38°58' E 009°24'1716.7
2014-Aug-11 23:33N 39°07' E 009°06'6 5.6
2014-Aug-11 22:33N 39°13' E 009°04'0 0.0
2014-Aug-11 21:31N 39°13' E 009°04'0 0.0
2014-Aug-11 20:31N 39°13' E 009°04'0 0.0
2014-Aug-11 19:31N 39°13' E 009°04'0 0.0
2014-Aug-11 18:31N 39°13' E 009°04'0 0.0
2014-Aug-11 17:31N 39°13' E 009°04'0 0.0
2014-Aug-11 16:31N 39°13' E 009°04'0 0.0
2014-Aug-11 15:31N 39°13' E 009°04'0 0.0
2014-Aug-11 14:19N 39°13' E 009°04'0 0.0
2014-Aug-11 11:30N 39°13' E 009°04'7 2.2
2014-Aug-11 08:32N 39°07' E 009°07'10 8.7
2014-Aug-11 07:25N 38°57' E 009°08'1311.2
2014-Aug-11 06:14N 38°46' E 008°58'913.3
2014-Aug-11 05:33N 38°42' E 008°48'1615.8
2014-Aug-11 04:33N 38°40' E 008°28'1716.6
2014-Aug-11 03:33N 38°38' E 008°07'1716.6
2014-Aug-11 02:33N 38°36' E 007°45'1817.3
2014-Aug-11 01:33N 38°34' E 007°23'1615.8
2014-Aug-11 00:33N 38°32' E 007°03'1716.6
2014-Aug-10 23:33N 38°28' E 006°43'1716.9
2014-Aug-10 22:33N 38°27' E 006°21'1717.1
2014-Aug-10 21:33N 38°27' E 005°59'1716.9
2014-Aug-10 20:34N 38°24' E 005°38'1717.1
2014-Aug-10 19:34N 38°21' E 005°17'1716.7
2014-Aug-10 18:34N 38°19' E 004°55'1716.8
2014-Aug-10 17:33N 38°16' E 004°34'1716.9
2014-Aug-10 16:33N 38°15' E 004°13'1716.9
2014-Aug-10 15:33N 38°13' E 003°52'1716.9
2014-Aug-10 14:34N 38°10' E 003°30'1716.8
2014-Aug-10 13:34N 38°03' E 003°11'1616.4
2014-Aug-10 12:34N 37°57' E 002°51'1616.3
2014-Aug-10 11:33N 37°50' E 002°32'1916.2
2014-Aug-10 10:22N 37°43' E 002°10'1416.2
2014-Aug-10 09:29N 37°37' E 001°54'1516.2
2014-Aug-10 08:32N 37°31' E 001°36'1616.3
2014-Aug-10 07:33N 37°24' E 001°18'1717.0
2014-Aug-10 06:33N 37°17' E 000°58'1817.6
2014-Aug-10 05:33N 37°10' E 000°38'1717.1
2014-Aug-10 04:33N 37°03' E 000°18'1616.2
2014-Aug-10 03:33N 36°57' W 000°01'1716.8
2014-Aug-10 02:33N 36°50' W 000°20'1716.8
2014-Aug-10 01:33N 36°43' W 000°39'1716.5
2014-Aug-10 00:33N 36°37' W 000°58'1616.5
2014-Aug-09 23:33N 36°29' W 001°16'1616.1
2014-Aug-09 22:33N 36°22' W 001°34'1816.3
2014-Aug-09 21:29N 36°15' W 001°54'1717.0
2014-Aug-09 20:29N 36°15' W 002°15'1516.4
2014-Aug-09 19:33N 36°14' W 002°34'13317.8
2014-Aug-09 12:03N 35°59' W 005°18'918.7
2014-Aug-09 11:33N 35°57' W 005°29'15916.9
2014-Aug-09 02:10N 36°16' W 008°44'1117.3
2014-Aug-09 01:33N 36°18' W 008°57'1917.2
2014-Aug-09 00:26N 36°23' W 009°20'77417.3
2014-Aug-07 03:33N 39°48' W 025°09'17917.2
2014-Aug-06 17:10N 40°21' W 028°58'1117.5
2014-Aug-06 16:32N 40°23' W 029°13'1817.0
2014-Aug-06 15:29N 40°21' W 029°36'  
Track history (hours):
 
Tides and Currents Weather Stations Pressure Air Temp Water Temp Dewpoint Dewpoint Depression Visibility Wind Speed Wind Dir Waves Ship Positions

APL Coral

More information available from US FCC via Universal Licensing System and Coast Guard Vessel Documentation Center.

Last reported at 2014-Aug-16 04:08 UTC. Time now 2014-Aug-29 12:13 UTC.
Position N 30°40' E 032°20'.
Warning: this ship's position is 13 days out of date.

Length 275 m; draft 12.4 m.

Type: Ship (hazmat cat A). MMSI: 367478280.

Date/timePositionNaut miles runAvg speedWind from/ knotsBaromVisibWave heightAir tempDewpointWater temp
2014-Aug-16 04:08N 30°40' E 032°20'5 9.2
2014-Aug-16 03:33N 30°45' E 032°20'10 9.4
2014-Aug-16 02:32N 30°55' E 032°19'10 9.5
2014-Aug-16 01:29N 31°05' E 032°19'9 8.7
2014-Aug-16 00:27N 31°14' E 032°21'910.0
2014-Aug-15 23:33N 31°22' E 032°23'5 4.4
2014-Aug-15 22:28N 31°27' E 032°20'1314.1
2014-Aug-15 21:34N 31°35' E 032°09'1515.0
2014-Aug-15 20:33N 31°39' E 031°52'1111.2
2014-Aug-15 19:33N 31°29' E 031°46'2 1.7
2014-Aug-15 18:26N 31°28' E 031°46'0 0.0
2014-Aug-15 17:32N 31°28' E 031°46'0 0.0
2014-Aug-15 16:29N 31°28' E 031°46'0 0.0
2014-Aug-15 15:26N 31°28' E 031°46'0 0.0
2014-Aug-15 14:32N 31°28' E 031°46'0 0.0
2014-Aug-15 13:32N 31°28' E 031°46'0 0.0
2014-Aug-15 12:32N 31°28' E 031°46'0 0.0
2014-Aug-15 11:31N 31°28' E 031°46'0 0.0
2014-Aug-15 10:33N 31°28' E 031°46'0 0.0
2014-Aug-15 09:32N 31°28' E 031°46'0 0.1
2014-Aug-15 08:33N 31°28' E 031°46'0 0.1
2014-Aug-15 07:17N 31°28' E 031°46'0 0.0
2014-Aug-15 06:32N 31°28' E 031°46'0 0.0
2014-Aug-15 05:33N 31°28' E 031°46'0 0.0
2014-Aug-15 04:33N 31°28' E 031°46'0 0.0
2014-Aug-15 03:20N 31°28' E 031°46'0 0.0
2014-Aug-15 02:28N 31°28' E 031°46'0 0.0
2014-Aug-15 01:33N 31°28' E 031°46'0 0.0
2014-Aug-15 00:20N 31°28' E 031°46'0 0.0
2014-Aug-14 23:33N 31°28' E 031°46'0 0.0
2014-Aug-14 22:33N 31°28' E 031°46'1 0.9
2014-Aug-14 21:33N 31°28' E 031°45'9 8.7
2014-Aug-14 20:33N 31°37' E 031°47'2 2.1
2014-Aug-14 19:33N 31°39' E 031°46'1515.3
2014-Aug-14 18:33N 31°51' E 031°35'1817.7
2014-Aug-14 17:34N 32°01' E 031°18'1818.2
2014-Aug-14 16:34N 32°07' E 030°58'1818.4
2014-Aug-14 15:33N 32°13' E 030°37'1817.8
2014-Aug-14 14:33N 32°18' E 030°17'1817.6
2014-Aug-14 13:33N 32°23' E 029°57'3517.4
2014-Aug-14 11:33N 32°34' E 029°18'1717.1
2014-Aug-14 10:33N 32°39' E 028°59'2517.0
2014-Aug-14 09:06N 32°47' E 028°31'917.0
2014-Aug-14 08:33N 32°49' E 028°20'39917.9
2014-Aug-13 10:15N 34°50' E 020°43'1316.9
2014-Aug-13 09:31N 34°54' E 020°28'27617.8
2014-Aug-12 18:04N 36°15' E 015°05'1014.5
2014-Aug-12 17:23N 36°20' E 014°54'1617.6
2014-Aug-12 16:29N 36°26' E 014°36'1718.0
2014-Aug-12 15:33N 36°34' E 014°17'1817.5
2014-Aug-12 14:32N 36°43' E 013°58'1717.2
2014-Aug-12 13:32N 36°51' E 013°39'1717.4
2014-Aug-12 12:34N 37°00' E 013°21'9118.2
2014-Aug-12 07:32N 37°50' E 011°45'5618.7
2014-Aug-12 04:34N 38°20' E 010°45'1918.7
2014-Aug-12 03:33N 38°30' E 010°24'1918.4
2014-Aug-12 02:33N 38°39' E 010°04'1818.6
2014-Aug-12 01:33N 38°49' E 009°44'1818.0
2014-Aug-12 00:34N 38°58' E 009°24'1716.7
2014-Aug-11 23:33N 39°07' E 009°06'6 5.6
2014-Aug-11 22:33N 39°13' E 009°04'0 0.0
2014-Aug-11 21:31N 39°13' E 009°04'0 0.0
2014-Aug-11 20:31N 39°13' E 009°04'0 0.0
2014-Aug-11 19:31N 39°13' E 009°04'0 0.0
2014-Aug-11 18:31N 39°13' E 009°04'0 0.0
2014-Aug-11 17:31N 39°13' E 009°04'0 0.0
2014-Aug-11 16:31N 39°13' E 009°04'0 0.0
2014-Aug-11 15:31N 39°13' E 009°04'0 0.0
2014-Aug-11 14:19N 39°13' E 009°04'0 0.0
2014-Aug-11 11:30N 39°13' E 009°04'7 2.2
2014-Aug-11 08:32N 39°07' E 009°07'10 8.7
2014-Aug-11 07:25N 38°57' E 009°08'1311.2
2014-Aug-11 06:14N 38°46' E 008°58'913.3
2014-Aug-11 05:33N 38°42' E 008°48'1615.8
2014-Aug-11 04:33N 38°40' E 008°28'1716.6
2014-Aug-11 03:33N 38°38' E 008°07'1716.6
2014-Aug-11 02:33N 38°36' E 007°45'1817.3
2014-Aug-11 01:33N 38°34' E 007°23'1615.8
2014-Aug-11 00:33N 38°32' E 007°03'1716.6
2014-Aug-10 23:33N 38°28' E 006°43'1716.9
2014-Aug-10 22:33N 38°27' E 006°21'1717.1
2014-Aug-10 21:33N 38°27' E 005°59'1716.9
2014-Aug-10 20:34N 38°24' E 005°38'1717.1
2014-Aug-10 19:34N 38°21' E 005°17'1716.7
2014-Aug-10 18:34N 38°19' E 004°55'1716.8
2014-Aug-10 17:33N 38°16' E 004°34'1716.9
2014-Aug-10 16:33N 38°15' E 004°13'1716.9
2014-Aug-10 15:33N 38°13' E 003°52'1716.9
2014-Aug-10 14:34N 38°10' E 003°30'1716.8
2014-Aug-10 13:34N 38°03' E 003°11'1616.4
2014-Aug-10 12:34N 37°57' E 002°51'1616.3
2014-Aug-10 11:33N 37°50' E 002°32'1916.2
2014-Aug-10 10:22N 37°43' E 002°10'1416.2
2014-Aug-10 09:29N 37°37' E 001°54'1516.2
2014-Aug-10 08:32N 37°31' E 001°36'1616.3
2014-Aug-10 07:33N 37°24' E 001°18'1717.0
2014-Aug-10 06:33N 37°17' E 000°58'1817.6
2014-Aug-10 05:33N 37°10' E 000°38'1717.1
2014-Aug-10 04:33N 37°03' E 000°18'1616.2
2014-Aug-10 03:33N 36°57' W 000°01'1716.8
2014-Aug-10 02:33N 36°50' W 000°20'1716.8
2014-Aug-10 01:33N 36°43' W 000°39'1716.5
2014-Aug-10 00:33N 36°37' W 000°58'1616.5
2014-Aug-09 23:33N 36°29' W 001°16'1616.1
2014-Aug-09 22:33N 36°22' W 001°34'1816.3
2014-Aug-09 21:29N 36°15' W 001°54'1717.0
2014-Aug-09 20:29N 36°15' W 002°15'1516.4
2014-Aug-09 19:33N 36°14' W 002°34'13317.8
2014-Aug-09 12:03N 35°59' W 005°18'918.7
2014-Aug-09 11:33N 35°57' W 005°29'15916.9
2014-Aug-09 02:10N 36°16' W 008°44'1117.3
2014-Aug-09 01:33N 36°18' W 008°57'1917.2
2014-Aug-09 00:26N 36°23' W 009°20'77417.3
2014-Aug-07 03:33N 39°48' W 025°09'17917.2
2014-Aug-06 17:10N 40°21' W 028°58'1117.5
2014-Aug-06 16:32N 40°23' W 029°13'1817.0
2014-Aug-06 15:29N 40°21' W 029°36'  

Dump ship's entire track history